sensor_id;sensor_type;location;lat;lon;timestamp;P1;durP1;ratioP1;P2;durP2;ratioP2
59008;SDS011;44794;42.652;23.318;2023-03-01T00:00:40;13.30;;;7.88;;
59008;SDS011;44794;42.652;23.318;2023-03-01T00:03:06;11.93;;;6.85;;
59008;SDS011;44794;42.652;23.318;2023-03-01T00:05:31;11.40;;;6.88;;
59008;SDS011;44794;42.652;23.318;2023-03-01T00:07:57;10.82;;;6.80;;
59008;SDS011;44794;42.652;23.318;2023-03-01T00:10:23;10.30;;;6.65;;
59008;SDS011;44794;42.652;23.318;2023-03-01T00:12:48;8.50;;;5.97;;
59008;SDS011;44794;42.652;23.318;2023-03-01T00:15:14;9.38;;;6.32;;
59008;SDS011;44794;42.652;23.318;2023-03-01T00:17:39;9.40;;;5.82;;
59008;SDS011;44794;42.652;23.318;2023-03-01T00:20:05;10.52;;;6.13;;
59008;SDS011;44794;42.652;23.318;2023-03-01T00:22:35;10.23;;;6.60;;
59008;SDS011;44794;42.652;23.318;2023-03-01T00:25:01;9.60;;;6.28;;
59008;SDS011;44794;42.652;23.318;2023-03-01T00:27:26;9.35;;;6.28;;
59008;SDS011;44794;42.652;23.318;2023-03-01T00:29:52;11.32;;;7.05;;
59008;SDS011;44794;42.652;23.318;2023-03-01T00:32:17;9.85;;;6.57;;
59008;SDS011;44794;42.652;23.318;2023-03-01T00:34:43;9.43;;;6.22;;
59008;SDS011;44794;42.652;23.318;2023-03-01T00:37:18;8.80;;;6.05;;
59008;SDS011;44794;42.652;23.318;2023-03-01T00:39:44;10.40;;;6.65;;
59008;SDS011;44794;42.652;23.318;2023-03-01T00:42:10;9.38;;;6.28;;
59008;SDS011;44794;42.652;23.318;2023-03-01T00:44:35;8.10;;;5.65;;
59008;SDS011;44794;42.652;23.318;2023-03-01T00:47:00;10.23;;;6.50;;
59008;SDS011;44794;42.652;23.318;2023-03-01T00:49:26;9.90;;;6.65;;
59008;SDS011;44794;42.652;23.318;2023-03-01T00:51:52;9.25;;;5.80;;
59008;SDS011;44794;42.652;23.318;2023-03-01T00:54:18;8.98;;;5.75;;
59008;SDS011;44794;42.652;23.318;2023-03-01T00:56:43;8.52;;;5.60;;
59008;SDS011;44794;42.652;23.318;2023-03-01T00:59:09;9.25;;;5.53;;
59008;SDS011;44794;42.652;23.318;2023-03-01T01:01:34;8.10;;;5.53;;
59008;SDS011;44794;42.652;23.318;2023-03-01T01:04:04;7.47;;;5.43;;
59008;SDS011;44794;42.652;23.318;2023-03-01T01:06:33;8.25;;;5.60;;
59008;SDS011;44794;42.652;23.318;2023-03-01T01:09:01;7.75;;;5.28;;
59008;SDS011;44794;42.652;23.318;2023-03-01T01:11:28;6.93;;;4.75;;
59008;SDS011;44794;42.652;23.318;2023-03-01T01:13:55;6.25;;;4.63;;
59008;SDS011;44794;42.652;23.318;2023-03-01T01:16:22;6.07;;;4.38;;
59008;SDS011;44794;42.652;23.318;2023-03-01T01:18:49;6.57;;;4.40;;
59008;SDS011;44794;42.652;23.318;2023-03-01T01:21:16;6.35;;;4.30;;
59008;SDS011;44794;42.652;23.318;2023-03-01T01:23:44;5.65;;;4.13;;
59008;SDS011;44794;42.652;23.318;2023-03-01T01:26:14;6.72;;;3.92;;
59008;SDS011;44794;42.652;23.318;2023-03-01T01:28:42;6.13;;;4.38;;
59008;SDS011;44794;42.652;23.318;2023-03-01T01:31:07;4.97;;;3.60;;
59008;SDS011;44794;42.652;23.318;2023-03-01T01:33:33;7.05;;;4.28;;
59008;SDS011;44794;42.652;23.318;2023-03-01T01:35:59;5.90;;;4.22;;
59008;SDS011;44794;42.652;23.318;2023-03-01T01:38:25;5.38;;;3.78;;
59008;SDS011;44794;42.652;23.318;2023-03-01T01:40:50;5.95;;;4.00;;
59008;SDS011;44794;42.652;23.318;2023-03-01T01:43:27;6.22;;;3.80;;
59008;SDS011;44794;42.652;23.318;2023-03-01T01:46:15;4.65;;;3.45;;
59008;SDS011;44794;42.652;23.318;2023-03-01T01:48:52;5.43;;;3.83;;
59008;SDS011;44794;42.652;23.318;2023-03-01T01:51:22;5.50;;;3.67;;
59008;SDS011;44794;42.652;23.318;2023-03-01T01:53:53;4.15;;;3.38;;
59008;SDS011;44794;42.652;23.318;2023-03-01T01:56:26;4.75;;;3.78;;
59008;SDS011;44794;42.652;23.318;2023-03-01T01:58:53;5.28;;;4.20;;
59008;SDS011;44794;42.652;23.318;2023-03-01T02:01:19;5.68;;;3.90;;
59008;SDS011;44794;42.652;23.318;2023-03-01T02:03:45;4.28;;;3.40;;
59008;SDS011;44794;42.652;23.318;2023-03-01T02:09:06;4.38;;;3.70;;
59008;SDS011;44794;42.652;23.318;2023-03-01T02:11:36;4.38;;;3.97;;
59008;SDS011;44794;42.652;23.318;2023-03-01T02:14:02;3.92;;;3.53;;
59008;SDS011;44794;42.652;23.318;2023-03-01T02:16:28;4.43;;;3.58;;
59008;SDS011;44794;42.652;23.318;2023-03-01T02:18:55;4.25;;;3.58;;
59008;SDS011;44794;42.652;23.318;2023-03-01T02:24:10;4.03;;;3.33;;
59008;SDS011;44794;42.652;23.318;2023-03-01T02:26:42;3.88;;;3.47;;
59008;SDS011;44794;42.652;23.318;2023-03-01T02:29:12;4.35;;;3.65;;
59008;SDS011;44794;42.652;23.318;2023-03-01T02:31:37;4.35;;;3.80;;
59008;SDS011;44794;42.652;23.318;2023-03-01T02:34:06;3.95;;;3.55;;
59008;SDS011;44794;42.652;23.318;2023-03-01T02:36:45;4.90;;;3.88;;
59008;SDS011;44794;42.652;23.318;2023-03-01T02:39:14;5.53;;;4.20;;
59008;SDS011;44794;42.652;23.318;2023-03-01T02:42:07;4.03;;;3.42;;
59008;SDS011;44794;42.652;23.318;2023-03-01T02:44:37;5.07;;;4.07;;
59008;SDS011;44794;42.652;23.318;2023-03-01T02:47:03;4.10;;;3.70;;
59008;SDS011;44794;42.652;23.318;2023-03-01T02:49:33;4.32;;;3.80;;
59008;SDS011;44794;42.652;23.318;2023-03-01T02:54:43;6.05;;;4.65;;
59008;SDS011;44794;42.652;23.318;2023-03-01T02:57:26;6.05;;;4.78;;
59008;SDS011;44794;42.652;23.318;2023-03-01T02:59:54;7.07;;;5.00;;
59008;SDS011;44794;42.652;23.318;2023-03-01T03:05:01;7.28;;;5.15;;
59008;SDS011;44794;42.652;23.318;2023-03-01T03:07:27;6.30;;;4.80;;
59008;SDS011;44794;42.652;23.318;2023-03-01T03:09:53;7.72;;;5.35;;
59008;SDS011;44794;42.652;23.318;2023-03-01T03:12:18;7.28;;;5.80;;
59008;SDS011;44794;42.652;23.318;2023-03-01T03:14:44;8.82;;;6.35;;
59008;SDS011;44794;42.652;23.318;2023-03-01T03:17:09;9.02;;;6.38;;
59008;SDS011;44794;42.652;23.318;2023-03-01T03:19:34;9.50;;;6.40;;
59008;SDS011;44794;42.652;23.318;2023-03-01T03:22:00;10.02;;;6.53;;
59008;SDS011;44794;42.652;23.318;2023-03-01T03:24:25;9.95;;;7.00;;
59008;SDS011;44794;42.652;23.318;2023-03-01T03:26:52;11.10;;;7.28;;
59008;SDS011;44794;42.652;23.318;2023-03-01T03:29:17;12.13;;;7.85;;
59008;SDS011;44794;42.652;23.318;2023-03-01T03:31:43;11.77;;;7.47;;
59008;SDS011;44794;42.652;23.318;2023-03-01T03:34:08;12.43;;;7.03;;
59008;SDS011;44794;42.652;23.318;2023-03-01T03:36:42;12.02;;;8.10;;
59008;SDS011;44794;42.652;23.318;2023-03-01T03:39:07;12.95;;;7.95;;
59008;SDS011;44794;42.652;23.318;2023-03-01T03:41:34;12.68;;;8.20;;
59008;SDS011;44794;42.652;23.318;2023-03-01T03:43:59;11.95;;;7.68;;
59008;SDS011;44794;42.652;23.318;2023-03-01T03:46:25;11.90;;;7.75;;
59008;SDS011;44794;42.652;23.318;2023-03-01T03:48:51;12.90;;;7.70;;
59008;SDS011;44794;42.652;23.318;2023-03-01T03:51:17;11.75;;;7.95;;
59008;SDS011;44794;42.652;23.318;2023-03-01T03:53:43;10.77;;;6.95;;
59008;SDS011;44794;42.652;23.318;2023-03-01T03:56:09;11.30;;;7.22;;
59008;SDS011;44794;42.652;23.318;2023-03-01T03:58:34;13.07;;;7.60;;
59008;SDS011;44794;42.652;23.318;2023-03-01T04:01:00;12.63;;;7.40;;
59008;SDS011;44794;42.652;23.318;2023-03-01T04:03:26;11.93;;;7.03;;
59008;SDS011;44794;42.652;23.318;2023-03-01T04:05:53;11.10;;;6.75;;
59008;SDS011;44794;42.652;23.318;2023-03-01T04:08:20;11.43;;;6.80;;
59008;SDS011;44794;42.652;23.318;2023-03-01T04:10:47;9.60;;;6.35;;
59008;SDS011;44794;42.652;23.318;2023-03-01T04:13:20;9.43;;;5.90;;
59008;SDS011;44794;42.652;23.318;2023-03-01T04:15:50;9.35;;;5.88;;
59008;SDS011;44794;42.652;23.318;2023-03-01T04:18:17;8.18;;;5.50;;
59008;SDS011;44794;42.652;23.318;2023-03-01T04:20:44;7.30;;;4.75;;
59008;SDS011;44794;42.652;23.318;2023-03-01T04:23:14;8.00;;;4.93;;
59008;SDS011;44794;42.652;23.318;2023-03-01T04:25:47;9.02;;;5.38;;
59008;SDS011;44794;42.652;23.318;2023-03-01T04:28:27;8.05;;;5.60;;
59008;SDS011;44794;42.652;23.318;2023-03-01T04:31:01;8.07;;;4.93;;
59008;SDS011;44794;42.652;23.318;2023-03-01T04:33:37;7.03;;;4.70;;
59008;SDS011;44794;42.652;23.318;2023-03-01T04:36:25;8.13;;;5.05;;
59008;SDS011;44794;42.652;23.318;2023-03-01T04:38:51;9.40;;;5.63;;
59008;SDS011;44794;42.652;23.318;2023-03-01T04:41:18;9.30;;;5.70;;
59008;SDS011;44794;42.652;23.318;2023-03-01T04:43:44;8.40;;;5.43;;
59008;SDS011;44794;42.652;23.318;2023-03-01T04:46:11;9.10;;;5.97;;
59008;SDS011;44794;42.652;23.318;2023-03-01T04:48:40;9.05;;;5.70;;
59008;SDS011;44794;42.652;23.318;2023-03-01T04:51:06;9.48;;;5.68;;
59008;SDS011;44794;42.652;23.318;2023-03-01T04:53:33;9.52;;;5.93;;
59008;SDS011;44794;42.652;23.318;2023-03-01T04:56:01;9.07;;;6.07;;
59008;SDS011;44794;42.652;23.318;2023-03-01T04:58:28;11.32;;;6.50;;
59008;SDS011;44794;42.652;23.318;2023-03-01T05:00:54;10.57;;;6.18;;
59008;SDS011;44794;42.652;23.318;2023-03-01T05:03:20;7.57;;;5.00;;
59008;SDS011;44794;42.652;23.318;2023-03-01T05:05:47;7.45;;;5.10;;
59008;SDS011;44794;42.652;23.318;2023-03-01T05:08:15;6.13;;;4.88;;
59008;SDS011;44794;42.652;23.318;2023-03-01T05:10:46;9.77;;;5.45;;
59008;SDS011;44794;42.652;23.318;2023-03-01T05:15:56;8.55;;;5.65;;
59008;SDS011;44794;42.652;23.318;2023-03-01T05:18:23;11.27;;;6.57;;
59008;SDS011;44794;42.652;23.318;2023-03-01T05:21:01;9.57;;;6.43;;
59008;SDS011;44794;42.652;23.318;2023-03-01T05:23:32;9.35;;;5.90;;
59008;SDS011;44794;42.652;23.318;2023-03-01T05:25:58;9.57;;;6.47;;
59008;SDS011;44794;42.652;23.318;2023-03-01T05:30:54;10.20;;;5.55;;
59008;SDS011;44794;42.652;23.318;2023-03-01T05:33:20;7.60;;;5.32;;
59008;SDS011;44794;42.652;23.318;2023-03-01T05:35:47;7.63;;;5.50;;
59008;SDS011;44794;42.652;23.318;2023-03-01T05:38:13;7.55;;;5.18;;
59008;SDS011;44794;42.652;23.318;2023-03-01T05:40:40;6.47;;;4.90;;
59008;SDS011;44794;42.652;23.318;2023-03-01T05:43:07;5.50;;;3.83;;
59008;SDS011;44794;42.652;23.318;2023-03-01T05:45:32;5.93;;;3.97;;
59008;SDS011;44794;42.652;23.318;2023-03-01T05:48:00;6.28;;;4.32;;
59008;SDS011;44794;42.652;23.318;2023-03-01T05:50:29;5.18;;;4.32;;
59008;SDS011;44794;42.652;23.318;2023-03-01T05:53:00;7.82;;;4.40;;
59008;SDS011;44794;42.652;23.318;2023-03-01T05:55:29;7.32;;;5.10;;
59008;SDS011;44794;42.652;23.318;2023-03-01T05:57:57;6.75;;;4.50;;
59008;SDS011;44794;42.652;23.318;2023-03-01T06:00:27;5.45;;;4.40;;
59008;SDS011;44794;42.652;23.318;2023-03-01T06:02:55;5.90;;;4.15;;
59008;SDS011;44794;42.652;23.318;2023-03-01T06:05:21;8.75;;;4.40;;
59008;SDS011;44794;42.652;23.318;2023-03-01T06:07:47;7.88;;;4.55;;
59008;SDS011;44794;42.652;23.318;2023-03-01T06:10:14;5.68;;;4.07;;
59008;SDS011;44794;42.652;23.318;2023-03-01T06:12:41;7.30;;;3.97;;
59008;SDS011;44794;42.652;23.318;2023-03-01T06:15:08;4.75;;;4.07;;
59008;SDS011;44794;42.652;23.318;2023-03-01T06:17:35;7.55;;;4.38;;
59008;SDS011;44794;42.652;23.318;2023-03-01T06:20:02;6.30;;;4.40;;
59008;SDS011;44794;42.652;23.318;2023-03-01T06:22:35;9.25;;;4.43;;
59008;SDS011;44794;42.652;23.318;2023-03-01T06:25:01;6.93;;;4.43;;
59008;SDS011;44794;42.652;23.318;2023-03-01T06:27:27;6.70;;;4.15;;
59008;SDS011;44794;42.652;23.318;2023-03-01T06:29:53;8.82;;;4.20;;
59008;SDS011;44794;42.652;23.318;2023-03-01T06:32:19;8.43;;;4.47;;
59008;SDS011;44794;42.652;23.318;2023-03-01T06:34:44;6.75;;;4.18;;
59008;SDS011;44794;42.652;23.318;2023-03-01T06:37:10;6.30;;;3.90;;
59008;SDS011;44794;42.652;23.318;2023-03-01T06:39:35;5.75;;;3.92;;
59008;SDS011;44794;42.652;23.318;2023-03-01T06:42:01;6.25;;;3.90;;
59008;SDS011;44794;42.652;23.318;2023-03-01T06:44:27;4.88;;;3.60;;
59008;SDS011;44794;42.652;23.318;2023-03-01T06:46:52;4.32;;;3.30;;
59008;SDS011;44794;42.652;23.318;2023-03-01T06:49:18;8.85;;;4.72;;
59008;SDS011;44794;42.652;23.318;2023-03-01T06:51:44;7.40;;;4.78;;
59008;SDS011;44794;42.652;23.318;2023-03-01T06:54:11;6.78;;;4.20;;
59008;SDS011;44794;42.652;23.318;2023-03-01T06:56:37;7.32;;;4.43;;
59008;SDS011;44794;42.652;23.318;2023-03-01T06:59:02;8.10;;;4.50;;
59008;SDS011;44794;42.652;23.318;2023-03-01T07:01:28;6.40;;;4.20;;
59008;SDS011;44794;42.652;23.318;2023-03-01T07:03:54;5.95;;;3.95;;
59008;SDS011;44794;42.652;23.318;2023-03-01T07:06:20;7.20;;;4.40;;
59008;SDS011;44794;42.652;23.318;2023-03-01T07:08:46;8.18;;;3.80;;
59008;SDS011;44794;42.652;23.318;2023-03-01T07:11:11;6.15;;;4.40;;
59008;SDS011;44794;42.652;23.318;2023-03-01T07:13:37;8.02;;;4.60;;
59008;SDS011;44794;42.652;23.318;2023-03-01T07:16:02;6.25;;;4.07;;
59008;SDS011;44794;42.652;23.318;2023-03-01T07:18:28;6.75;;;4.47;;
59008;SDS011;44794;42.652;23.318;2023-03-01T07:20:53;9.23;;;5.20;;
59008;SDS011;44794;42.652;23.318;2023-03-01T07:23:19;11.57;;;6.57;;
59008;SDS011;44794;42.652;23.318;2023-03-01T07:25:44;9.82;;;6.70;;
59008;SDS011;44794;42.652;23.318;2023-03-01T07:28:15;10.93;;;6.93;;
59008;SDS011;44794;42.652;23.318;2023-03-01T07:30:41;16.35;;;8.38;;
59008;SDS011;44794;42.652;23.318;2023-03-01T07:33:06;7.60;;;3.58;;
59008;SDS011;44794;42.652;23.318;2023-03-01T07:35:32;10.23;;;5.20;;
59008;SDS011;44794;42.652;23.318;2023-03-01T07:37:58;9.63;;;4.70;;
59008;SDS011;44794;42.652;23.318;2023-03-01T07:40:23;8.95;;;4.75;;
59008;SDS011;44794;42.652;23.318;2023-03-01T07:42:49;6.32;;;4.03;;
59008;SDS011;44794;42.652;23.318;2023-03-01T07:45:14;6.22;;;3.30;;
59008;SDS011;44794;42.652;23.318;2023-03-01T07:47:40;7.50;;;3.65;;
59008;SDS011;44794;42.652;23.318;2023-03-01T07:50:05;4.97;;;3.60;;
59008;SDS011;44794;42.652;23.318;2023-03-01T07:52:31;4.88;;;3.17;;
59008;SDS011;44794;42.652;23.318;2023-03-01T07:54:57;10.15;;;4.45;;
59008;SDS011;44794;42.652;23.318;2023-03-01T07:57:22;9.52;;;5.22;;
59008;SDS011;44794;42.652;23.318;2023-03-01T07:59:48;9.48;;;4.75;;
59008;SDS011;44794;42.652;23.318;2023-03-01T08:02:13;7.70;;;4.20;;
59008;SDS011;44794;42.652;23.318;2023-03-01T08:04:40;18.48;;;9.32;;
59008;SDS011;44794;42.652;23.318;2023-03-01T08:07:06;10.73;;;6.28;;
59008;SDS011;44794;42.652;23.318;2023-03-01T08:09:31;8.98;;;5.68;;
59008;SDS011;44794;42.652;23.318;2023-03-01T08:12:00;12.30;;;6.55;;
59008;SDS011;44794;42.652;23.318;2023-03-01T08:14:26;5.78;;;3.55;;
59008;SDS011;44794;42.652;23.318;2023-03-01T08:16:51;12.30;;;6.68;;
59008;SDS011;44794;42.652;23.318;2023-03-01T08:19:17;8.77;;;4.25;;
59008;SDS011;44794;42.652;23.318;2023-03-01T08:21:42;5.90;;;4.32;;
59008;SDS011;44794;42.652;23.318;2023-03-01T08:24:08;3.60;;;3.10;;
59008;SDS011;44794;42.652;23.318;2023-03-01T08:26:35;6.05;;;4.55;;
59008;SDS011;44794;42.652;23.318;2023-03-01T08:29:01;11.55;;;7.47;;
59008;SDS011;44794;42.652;23.318;2023-03-01T08:31:32;4.55;;;3.70;;
59008;SDS011;44794;42.652;23.318;2023-03-01T08:34:00;6.10;;;4.75;;
59008;SDS011;44794;42.652;23.318;2023-03-01T08:36:29;7.38;;;5.07;;
59008;SDS011;44794;42.652;23.318;2023-03-01T08:38:57;5.85;;;5.10;;
59008;SDS011;44794;42.652;23.318;2023-03-01T08:41:23;4.95;;;3.90;;
59008;SDS011;44794;42.652;23.318;2023-03-01T08:43:49;4.78;;;2.70;;
59008;SDS011;44794;42.652;23.318;2023-03-01T08:46:14;3.85;;;2.95;;
59008;SDS011;44794;42.652;23.318;2023-03-01T08:48:40;7.13;;;3.50;;
59008;SDS011;44794;42.652;23.318;2023-03-01T08:51:15;3.33;;;2.80;;
59008;SDS011;44794;42.652;23.318;2023-03-01T08:53:42;4.82;;;2.95;;
59008;SDS011;44794;42.652;23.318;2023-03-01T08:56:08;4.88;;;3.03;;
59008;SDS011;44794;42.652;23.318;2023-03-01T08:58:35;4.55;;;3.17;;
59008;SDS011;44794;42.652;23.318;2023-03-01T09:01:06;3.92;;;3.03;;
59008;SDS011;44794;42.652;23.318;2023-03-01T09:03:33;4.78;;;3.03;;
59008;SDS011;44794;42.652;23.318;2023-03-01T09:06:02;4.00;;;3.05;;
59008;SDS011;44794;42.652;23.318;2023-03-01T09:08:29;4.88;;;3.63;;
59008;SDS011;44794;42.652;23.318;2023-03-01T09:10:55;4.68;;;3.38;;
59008;SDS011;44794;42.652;23.318;2023-03-01T09:13:20;5.82;;;3.80;;
59008;SDS011;44794;42.652;23.318;2023-03-01T09:15:48;5.60;;;4.28;;
59008;SDS011;44794;42.652;23.318;2023-03-01T09:18:14;7.70;;;4.53;;
59008;SDS011;44794;42.652;23.318;2023-03-01T09:20:39;7.25;;;4.53;;
59008;SDS011;44794;42.652;23.318;2023-03-01T09:23:05;4.68;;;3.88;;
59008;SDS011;44794;42.652;23.318;2023-03-01T09:25:30;5.80;;;3.20;;
59008;SDS011;44794;42.652;23.318;2023-03-01T09:27:56;4.32;;;3.22;;
59008;SDS011;44794;42.652;23.318;2023-03-01T09:30:21;3.65;;;3.03;;
59008;SDS011;44794;42.652;23.318;2023-03-01T09:32:47;3.95;;;3.30;;
59008;SDS011;44794;42.652;23.318;2023-03-01T09:35:12;5.40;;;3.50;;
59008;SDS011;44794;42.652;23.318;2023-03-01T09:37:38;4.20;;;3.05;;
59008;SDS011;44794;42.652;23.318;2023-03-01T09:40:17;3.95;;;3.00;;
59008;SDS011;44794;42.652;23.318;2023-03-01T09:42:46;6.28;;;3.33;;
59008;SDS011;44794;42.652;23.318;2023-03-01T09:45:29;7.20;;;3.30;;
59008;SDS011;44794;42.652;23.318;2023-03-01T09:48:00;4.65;;;2.67;;
59008;SDS011;44794;42.652;23.318;2023-03-01T09:50:28;4.47;;;2.92;;
59008;SDS011;44794;42.652;23.318;2023-03-01T09:53:04;6.32;;;3.10;;
59008;SDS011;44794;42.652;23.318;2023-03-01T10:01:25;4.55;;;2.85;;
59008;SDS011;44794;42.652;23.318;2023-03-01T10:07:05;5.28;;;2.92;;
59008;SDS011;44794;42.652;23.318;2023-03-01T10:09:43;7.95;;;3.08;;
59008;SDS011;44794;42.652;23.318;2023-03-01T10:12:11;4.40;;;2.95;;
59008;SDS011;44794;42.652;23.318;2023-03-01T10:17:56;8.02;;;3.28;;
59008;SDS011;44794;42.652;23.318;2023-03-01T10:23:13;4.57;;;2.97;;
59008;SDS011;44794;42.652;23.318;2023-03-01T10:25:52;6.82;;;3.42;;
59008;SDS011;44794;42.652;23.318;2023-03-01T10:31:29;5.57;;;2.70;;
59008;SDS011;44794;42.652;23.318;2023-03-01T10:34:07;4.70;;;2.65;;
59008;SDS011;44794;42.652;23.318;2023-03-01T10:36:41;3.60;;;2.70;;
59008;SDS011;44794;42.652;23.318;2023-03-01T10:39:12;8.27;;;3.33;;
59008;SDS011;44794;42.652;23.318;2023-03-01T10:41:59;5.05;;;3.10;;
59008;SDS011;44794;42.652;23.318;2023-03-01T10:44:35;6.38;;;3.50;;
59008;SDS011;44794;42.652;23.318;2023-03-01T10:47:02;8.27;;;3.78;;
59008;SDS011;44794;42.652;23.318;2023-03-01T10:49:28;6.60;;;3.95;;
59008;SDS011;44794;42.652;23.318;2023-03-01T10:51:53;4.82;;;2.70;;
59008;SDS011;44794;42.652;23.318;2023-03-01T10:54:20;6.88;;;2.60;;
59008;SDS011;44794;42.652;23.318;2023-03-01T10:56:56;5.25;;;3.28;;
59008;SDS011;44794;42.652;23.318;2023-03-01T11:04:38;4.88;;;3.42;;
59008;SDS011;44794;42.652;23.318;2023-03-01T11:07:04;5.05;;;3.30;;
59008;SDS011;44794;42.652;23.318;2023-03-01T11:09:33;6.38;;;2.80;;
59008;SDS011;44794;42.652;23.318;2023-03-01T11:12:08;5.72;;;3.20;;
59008;SDS011;44794;42.652;23.318;2023-03-01T11:14:46;6.35;;;3.55;;
59008;SDS011;44794;42.652;23.318;2023-03-01T11:17:27;6.20;;;3.90;;
59008;SDS011;44794;42.652;23.318;2023-03-01T11:23:04;5.25;;;3.42;;
59008;SDS011;44794;42.652;23.318;2023-03-01T11:25:36;6.50;;;3.78;;
59008;SDS011;44794;42.652;23.318;2023-03-01T11:28:05;8.50;;;3.90;;
59008;SDS011;44794;42.652;23.318;2023-03-01T11:36:03;4.28;;;3.50;;
59008;SDS011;44794;42.652;23.318;2023-03-01T11:38:32;5.70;;;3.72;;
59008;SDS011;44794;42.652;23.318;2023-03-01T11:51:31;5.07;;;4.28;;
59008;SDS011;44794;42.652;23.318;2023-03-01T11:57:43;5.23;;;4.10;;
59008;SDS011;44794;42.652;23.318;2023-03-01T12:08:41;5.82;;;4.55;;
59008;SDS011;44794;42.652;23.318;2023-03-01T12:22:38;8.90;;;4.97;;
59008;SDS011;44794;42.652;23.318;2023-03-01T12:28:03;13.82;;;8.57;;
59008;SDS011;44794;42.652;23.318;2023-03-01T12:30:42;7.57;;;4.65;;
59008;SDS011;44794;42.652;23.318;2023-03-01T12:33:42;10.40;;;5.47;;
59008;SDS011;44794;42.652;23.318;2023-03-01T12:38:49;6.38;;;4.38;;
59008;SDS011;44794;42.652;23.318;2023-03-01T12:49:49;5.68;;;4.18;;
59008;SDS011;44794;42.652;23.318;2023-03-01T12:54:52;5.22;;;3.83;;
59008;SDS011;44794;42.652;23.318;2023-03-01T12:57:26;6.20;;;3.97;;
59008;SDS011;44794;42.652;23.318;2023-03-01T13:00:05;4.65;;;3.95;;
59008;SDS011;44794;42.652;23.318;2023-03-01T13:11:01;5.82;;;4.30;;
59008;SDS011;44794;42.652;23.318;2023-03-01T13:13:29;4.82;;;3.95;;
59008;SDS011;44794;42.652;23.318;2023-03-01T13:15:55;7.03;;;4.32;;
59008;SDS011;44794;42.652;23.318;2023-03-01T13:20:55;6.15;;;4.18;;
59008;SDS011;44794;42.652;23.318;2023-03-01T13:23:30;6.03;;;3.72;;
59008;SDS011;44794;42.652;23.318;2023-03-01T13:26:09;8.40;;;3.83;;
59008;SDS011;44794;42.652;23.318;2023-03-01T13:34:39;6.13;;;4.70;;
59008;SDS011;44794;42.652;23.318;2023-03-01T13:37:24;8.45;;;4.18;;
59008;SDS011;44794;42.652;23.318;2023-03-01T13:39:54;7.13;;;4.95;;
59008;SDS011;44794;42.652;23.318;2023-03-01T13:42:31;9.02;;;5.18;;
59008;SDS011;44794;42.652;23.318;2023-03-01T13:45:24;7.47;;;5.35;;
59008;SDS011;44794;42.652;23.318;2023-03-01T13:48:16;5.95;;;4.53;;
59008;SDS011;44794;42.652;23.318;2023-03-01T13:51:01;7.60;;;5.05;;
59008;SDS011;44794;42.652;23.318;2023-03-01T13:53:31;8.27;;;5.30;;
59008;SDS011;44794;42.652;23.318;2023-03-01T13:56:15;7.68;;;5.00;;
59008;SDS011;44794;42.652;23.318;2023-03-01T14:01:55;8.25;;;5.00;;
59008;SDS011;44794;42.652;23.318;2023-03-01T14:04:24;9.50;;;5.25;;
59008;SDS011;44794;42.652;23.318;2023-03-01T14:06:52;6.40;;;4.95;;
59008;SDS011;44794;42.652;23.318;2023-03-01T14:09:43;7.65;;;4.80;;
59008;SDS011;44794;42.652;23.318;2023-03-01T14:15:22;8.65;;;4.70;;
59008;SDS011;44794;42.652;23.318;2023-03-01T14:17:59;10.35;;;5.13;;
59008;SDS011;44794;42.652;23.318;2023-03-01T14:20:27;8.30;;;4.75;;
59008;SDS011;44794;42.652;23.318;2023-03-01T14:22:58;9.90;;;4.97;;
59008;SDS011;44794;42.652;23.318;2023-03-01T14:28:02;6.65;;;4.60;;
59008;SDS011;44794;42.652;23.318;2023-03-01T14:30:50;8.30;;;4.78;;
59008;SDS011;44794;42.652;23.318;2023-03-01T14:38:20;10.95;;;4.68;;
59008;SDS011;44794;42.652;23.318;2023-03-01T14:40:48;6.80;;;4.63;;
59008;SDS011;44794;42.652;23.318;2023-03-01T14:43:19;7.97;;;4.38;;
59008;SDS011;44794;42.652;23.318;2023-03-01T14:45:49;9.40;;;5.00;;
59008;SDS011;44794;42.652;23.318;2023-03-01T14:48:15;6.88;;;4.50;;
59008;SDS011;44794;42.652;23.318;2023-03-01T14:50:42;7.10;;;4.70;;
59008;SDS011;44794;42.652;23.318;2023-03-01T14:53:15;8.82;;;4.68;;
59008;SDS011;44794;42.652;23.318;2023-03-01T14:55:48;10.27;;;5.30;;
59008;SDS011;44794;42.652;23.318;2023-03-01T14:58:18;6.88;;;4.60;;
59008;SDS011;44794;42.652;23.318;2023-03-01T15:00:55;7.40;;;5.00;;
59008;SDS011;44794;42.652;23.318;2023-03-01T15:03:32;11.77;;;4.63;;
59008;SDS011;44794;42.652;23.318;2023-03-01T15:06:02;8.82;;;4.57;;
59008;SDS011;44794;42.652;23.318;2023-03-01T15:08:29;10.13;;;4.88;;
59008;SDS011;44794;42.652;23.318;2023-03-01T15:11:15;7.75;;;4.85;;
59008;SDS011;44794;42.652;23.318;2023-03-01T15:13:48;7.10;;;4.60;;
59008;SDS011;44794;42.652;23.318;2023-03-01T15:16:15;9.43;;;5.00;;
59008;SDS011;44794;42.652;23.318;2023-03-01T15:18:46;12.43;;;5.10;;
59008;SDS011;44794;42.652;23.318;2023-03-01T15:21:32;10.40;;;5.78;;
59008;SDS011;44794;42.652;23.318;2023-03-01T15:26:45;13.70;;;7.05;;
59008;SDS011;44794;42.652;23.318;2023-03-01T15:29:32;12.82;;;6.15;;
59008;SDS011;44794;42.652;23.318;2023-03-01T15:32:06;10.73;;;6.68;;
59008;SDS011;44794;42.652;23.318;2023-03-01T15:34:48;8.93;;;5.95;;
59008;SDS011;44794;42.652;23.318;2023-03-01T15:40:02;8.48;;;5.68;;
59008;SDS011;44794;42.652;23.318;2023-03-01T15:42:43;9.48;;;6.20;;
59008;SDS011;44794;42.652;23.318;2023-03-01T15:47:38;9.90;;;5.82;;
59008;SDS011;44794;42.652;23.318;2023-03-01T15:50:14;9.05;;;5.80;;
59008;SDS011;44794;42.652;23.318;2023-03-01T15:52:46;9.55;;;5.50;;
59008;SDS011;44794;42.652;23.318;2023-03-01T15:55:16;9.57;;;5.95;;
59008;SDS011;44794;42.652;23.318;2023-03-01T15:57:44;9.57;;;5.97;;
59008;SDS011;44794;42.652;23.318;2023-03-01T16:00:10;10.38;;;6.22;;
59008;SDS011;44794;42.652;23.318;2023-03-01T16:02:38;10.57;;;5.80;;
59008;SDS011;44794;42.652;23.318;2023-03-01T16:05:05;13.38;;;6.35;;
59008;SDS011;44794;42.652;23.318;2023-03-01T16:07:40;9.23;;;5.93;;
59008;SDS011;44794;42.652;23.318;2023-03-01T16:10:05;8.88;;;5.88;;
59008;SDS011;44794;42.652;23.318;2023-03-01T16:12:31;13.45;;;5.88;;
59008;SDS011;44794;42.652;23.318;2023-03-01T16:14:57;8.93;;;5.72;;
59008;SDS011;44794;42.652;23.318;2023-03-01T16:17:23;8.18;;;5.18;;
59008;SDS011;44794;42.652;23.318;2023-03-01T16:19:49;9.32;;;4.90;;
59008;SDS011;44794;42.652;23.318;2023-03-01T16:22:15;10.27;;;5.97;;
59008;SDS011;44794;42.652;23.318;2023-03-01T16:24:41;9.93;;;5.88;;
59008;SDS011;44794;42.652;23.318;2023-03-01T16:27:07;9.80;;;5.57;;
59008;SDS011;44794;42.652;23.318;2023-03-01T16:29:32;7.93;;;4.95;;
59008;SDS011;44794;42.652;23.318;2023-03-01T16:32:01;9.98;;;5.72;;
59008;SDS011;44794;42.652;23.318;2023-03-01T16:34:27;11.35;;;5.55;;
59008;SDS011;44794;42.652;23.318;2023-03-01T16:36:52;10.35;;;5.22;;
59008;SDS011;44794;42.652;23.318;2023-03-01T16:39:18;9.75;;;5.13;;
59008;SDS011;44794;42.652;23.318;2023-03-01T16:41:44;12.63;;;6.60;;
59008;SDS011;44794;42.652;23.318;2023-03-01T16:44:09;13.43;;;5.78;;
59008;SDS011;44794;42.652;23.318;2023-03-01T16:46:35;10.57;;;5.60;;
59008;SDS011;44794;42.652;23.318;2023-03-01T16:49:00;11.52;;;5.80;;
59008;SDS011;44794;42.652;23.318;2023-03-01T16:51:29;9.52;;;5.60;;
59008;SDS011;44794;42.652;23.318;2023-03-01T16:53:55;11.60;;;6.05;;
59008;SDS011;44794;42.652;23.318;2023-03-01T16:56:21;9.35;;;5.15;;
59008;SDS011;44794;42.652;23.318;2023-03-01T16:58:47;13.50;;;5.20;;